sensor_id;sensor_type;location;lat;lon;timestamp;temperature;humidity
4856;DHT22;2442;48.676;7.986;2022-09-09T00:01:25;16.70;99.90
4856;DHT22;2442;48.676;7.986;2022-09-09T00:04:05;16.80;99.90
4856;DHT22;2442;48.676;7.986;2022-09-09T00:06:45;16.70;99.90
4856;DHT22;2442;48.676;7.986;2022-09-09T00:09:19;16.80;99.90
4856;DHT22;2442;48.676;7.986;2022-09-09T00:11:52;16.90;99.90
4856;DHT22;2442;48.676;7.986;2022-09-09T00:14:27;16.80;99.90
4856;DHT22;2442;48.676;7.986;2022-09-09T00:17:04;16.90;99.90
4856;DHT22;2442;48.676;7.986;2022-09-09T00:19:40;16.90;99.90
4856;DHT22;2442;48.676;7.986;2022-09-09T00:22:16;16.90;99.90
4856;DHT22;2442;48.676;7.986;2022-09-09T00:24:46;16.90;99.90
4856;DHT22;2442;48.676;7.986;2022-09-09T00:27:24;16.80;99.90
4856;DHT22;2442;48.676;7.986;2022-09-09T00:30:00;16.80;99.90
4856;DHT22;2442;48.676;7.986;2022-09-09T00:32:40;16.80;99.90
4856;DHT22;2442;48.676;7.986;2022-09-09T00:35:16;16.80;99.90
4856;DHT22;2442;48.676;7.986;2022-09-09T00:37:46;16.80;99.90
4856;DHT22;2442;48.676;7.986;2022-09-09T00:40:23;16.80;99.90
4856;DHT22;2442;48.676;7.986;2022-09-09T00:43:03;16.70;99.90
4856;DHT22;2442;48.676;7.986;2022-09-09T00:45:54;16.70;99.90
4856;DHT22;2442;48.676;7.986;2022-09-09T00:48:38;16.60;99.90
4856;DHT22;2442;48.676;7.986;2022-09-09T00:51:15;16.50;99.90
4856;DHT22;2442;48.676;7.986;2022-09-09T00:54:04;16.40;99.90
4856;DHT22;2442;48.676;7.986;2022-09-09T00:56:51;16.20;99.90
4856;DHT22;2442;48.676;7.986;2022-09-09T00:59:30;16.10;99.90
4856;DHT22;2442;48.676;7.986;2022-09-09T01:02:07;16.10;99.90
4856;DHT22;2442;48.676;7.986;2022-09-09T01:04:42;16.00;99.90
4856;DHT22;2442;48.676;7.986;2022-09-09T01:07:16;15.90;99.90
4856;DHT22;2442;48.676;7.986;2022-09-09T01:09:52;15.80;99.90
4856;DHT22;2442;48.676;7.986;2022-09-09T01:12:38;15.60;99.90
4856;DHT22;2442;48.676;7.986;2022-09-09T01:15:10;15.60;99.90
4856;DHT22;2442;48.676;7.986;2022-09-09T01:17:50;15.50;99.90
4856;DHT22;2442;48.676;7.986;2022-09-09T01:20:24;15.50;99.90
4856;DHT22;2442;48.676;7.986;2022-09-09T01:26:13;15.60;99.90
4856;DHT22;2442;48.676;7.986;2022-09-09T01:28:46;15.40;99.90
4856;DHT22;2442;48.676;7.986;2022-09-09T01:31:18;15.30;99.90
4856;DHT22;2442;48.676;7.986;2022-09-09T01:33:47;15.20;99.90
4856;DHT22;2442;48.676;7.986;2022-09-09T01:36:20;15.10;99.90
4856;DHT22;2442;48.676;7.986;2022-09-09T01:38:51;15.00;99.90
4856;DHT22;2442;48.676;7.986;2022-09-09T01:41:20;14.90;99.90
4856;DHT22;2442;48.676;7.986;2022-09-09T01:43:48;14.90;99.90
4856;DHT22;2442;48.676;7.986;2022-09-09T01:46:16;14.80;99.90
4856;DHT22;2442;48.676;7.986;2022-09-09T01:48:45;14.80;99.90
4856;DHT22;2442;48.676;7.986;2022-09-09T01:51:12;14.80;99.90
4856;DHT22;2442;48.676;7.986;2022-09-09T01:53:40;14.70;99.90
4856;DHT22;2442;48.676;7.986;2022-09-09T01:56:21;14.70;99.90
4856;DHT22;2442;48.676;7.986;2022-09-09T01:59:08;14.60;99.90
4856;DHT22;2442;48.676;7.986;2022-09-09T02:01:50;14.60;99.90
4856;DHT22;2442;48.676;7.986;2022-09-09T02:04:35;14.60;99.90
4856;DHT22;2442;48.676;7.986;2022-09-09T02:07:09;14.60;99.90
4856;DHT22;2442;48.676;7.986;2022-09-09T02:09:49;14.60;99.90
4856;DHT22;2442;48.676;7.986;2022-09-09T02:12:21;14.50;99.90
4856;DHT22;2442;48.676;7.986;2022-09-09T02:14:55;14.50;99.90
4856;DHT22;2442;48.676;7.986;2022-09-09T02:17:25;14.50;99.90
4856;DHT22;2442;48.676;7.986;2022-09-09T02:19:58;14.60;99.90
4856;DHT22;2442;48.676;7.986;2022-09-09T02:22:30;14.70;99.90
4856;DHT22;2442;48.676;7.986;2022-09-09T02:25:00;14.70;99.90
4856;DHT22;2442;48.676;7.986;2022-09-09T02:27:29;14.70;99.90
4856;DHT22;2442;48.676;7.986;2022-09-09T02:29:57;14.70;99.90
4856;DHT22;2442;48.676;7.986;2022-09-09T02:32:29;14.70;99.90
4856;DHT22;2442;48.676;7.986;2022-09-09T02:34:59;14.70;99.90
4856;DHT22;2442;48.676;7.986;2022-09-09T02:37:32;14.60;99.90
4856;DHT22;2442;48.676;7.986;2022-09-09T02:40:03;14.60;99.90
4856;DHT22;2442;48.676;7.986;2022-09-09T02:42:37;14.60;99.90
4856;DHT22;2442;48.676;7.986;2022-09-09T02:45:07;14.60;99.90
4856;DHT22;2442;48.676;7.986;2022-09-09T02:47:38;14.60;99.90
4856;DHT22;2442;48.676;7.986;2022-09-09T02:50:12;14.70;99.90
4856;DHT22;2442;48.676;7.986;2022-09-09T02:52:51;14.70;99.90
4856;DHT22;2442;48.676;7.986;2022-09-09T02:55:32;14.80;99.90
4856;DHT22;2442;48.676;7.986;2022-09-09T02:58:08;14.70;99.90
4856;DHT22;2442;48.676;7.986;2022-09-09T03:00:39;14.80;99.90
4856;DHT22;2442;48.676;7.986;2022-09-09T03:03:06;14.80;99.90
4856;DHT22;2442;48.676;7.986;2022-09-09T03:05:35;14.80;99.90
4856;DHT22;2442;48.676;7.986;2022-09-09T03:08:03;14.80;99.90
4856;DHT22;2442;48.676;7.986;2022-09-09T03:10:31;14.80;99.90
4856;DHT22;2442;48.676;7.986;2022-09-09T03:12:58;14.80;99.90
4856;DHT22;2442;48.676;7.986;2022-09-09T03:15:27;14.80;99.90
4856;DHT22;2442;48.676;7.986;2022-09-09T03:17:55;14.70;99.90
4856;DHT22;2442;48.676;7.986;2022-09-09T03:20:23;14.70;99.90
4856;DHT22;2442;48.676;7.986;2022-09-09T03:22:51;14.60;99.90
4856;DHT22;2442;48.676;7.986;2022-09-09T03:25:18;14.60;99.90
4856;DHT22;2442;48.676;7.986;2022-09-09T03:27:46;14.60;99.90
4856;DHT22;2442;48.676;7.986;2022-09-09T03:30:13;14.60;99.90
4856;DHT22;2442;48.676;7.986;2022-09-09T03:32:42;14.60;99.90
4856;DHT22;2442;48.676;7.986;2022-09-09T03:35:10;14.50;99.90
4856;DHT22;2442;48.676;7.986;2022-09-09T03:37:37;14.50;99.90
4856;DHT22;2442;48.676;7.986;2022-09-09T03:40:05;14.50;99.90
4856;DHT22;2442;48.676;7.986;2022-09-09T03:42:35;14.40;99.90
4856;DHT22;2442;48.676;7.986;2022-09-09T03:45:03;14.40;99.90
4856;DHT22;2442;48.676;7.986;2022-09-09T03:47:31;14.40;99.90
4856;DHT22;2442;48.676;7.986;2022-09-09T03:50:00;14.40;99.90
4856;DHT22;2442;48.676;7.986;2022-09-09T03:52:27;14.40;99.90
4856;DHT22;2442;48.676;7.986;2022-09-09T03:54:55;14.40;99.90
4856;DHT22;2442;48.676;7.986;2022-09-09T03:57:22;14.20;99.90
4856;DHT22;2442;48.676;7.986;2022-09-09T03:59:49;14.20;99.90
4856;DHT22;2442;48.676;7.986;2022-09-09T04:02:16;14.20;99.90
4856;DHT22;2442;48.676;7.986;2022-09-09T04:04:43;14.20;99.90
4856;DHT22;2442;48.676;7.986;2022-09-09T04:07:12;14.10;99.90
4856;DHT22;2442;48.676;7.986;2022-09-09T04:09:39;14.10;99.90
4856;DHT22;2442;48.676;7.986;2022-09-09T04:12:09;14.10;99.90
4856;DHT22;2442;48.676;7.986;2022-09-09T04:14:38;14.00;99.90
4856;DHT22;2442;48.676;7.986;2022-09-09T04:17:06;14.00;99.90
4856;DHT22;2442;48.676;7.986;2022-09-09T04:19:33;14.00;99.90
4856;DHT22;2442;48.676;7.986;2022-09-09T04:22:00;14.00;99.90
4856;DHT22;2442;48.676;7.986;2022-09-09T04:24:28;14.10;99.90
4856;DHT22;2442;48.676;7.986;2022-09-09T04:26:55;14.10;99.90
4856;DHT22;2442;48.676;7.986;2022-09-09T04:29:23;14.00;99.90
4856;DHT22;2442;48.676;7.986;2022-09-09T04:31:50;14.00;99.90
4856;DHT22;2442;48.676;7.986;2022-09-09T04:34:17;13.90;99.90
4856;DHT22;2442;48.676;7.986;2022-09-09T04:36:44;14.00;99.90
4856;DHT22;2442;48.676;7.986;2022-09-09T04:39:11;14.00;99.90
4856;DHT22;2442;48.676;7.986;2022-09-09T04:41:40;14.00;99.90
4856;DHT22;2442;48.676;7.986;2022-09-09T04:44:07;14.00;99.90
4856;DHT22;2442;48.676;7.986;2022-09-09T04:46:35;14.10;99.90
4856;DHT22;2442;48.676;7.986;2022-09-09T04:49:02;14.20;99.90
4856;DHT22;2442;48.676;7.986;2022-09-09T04:51:29;14.10;99.90
4856;DHT22;2442;48.676;7.986;2022-09-09T04:53:57;14.10;99.90
4856;DHT22;2442;48.676;7.986;2022-09-09T04:56:24;14.10;99.90
4856;DHT22;2442;48.676;7.986;2022-09-09T04:58:53;14.10;99.90
4856;DHT22;2442;48.676;7.986;2022-09-09T05:01:21;14.00;99.90
4856;DHT22;2442;48.676;7.986;2022-09-09T05:03:49;14.20;99.90
4856;DHT22;2442;48.676;7.986;2022-09-09T05:06:19;14.10;99.90
4856;DHT22;2442;48.676;7.986;2022-09-09T05:08:47;14.00;99.90
4856;DHT22;2442;48.676;7.986;2022-09-09T05:11:19;14.00;99.90
4856;DHT22;2442;48.676;7.986;2022-09-09T05:13:47;13.80;99.90
4856;DHT22;2442;48.676;7.986;2022-09-09T05:16:17;13.80;99.90
4856;DHT22;2442;48.676;7.986;2022-09-09T05:18:45;13.80;99.90
4856;DHT22;2442;48.676;7.986;2022-09-09T05:21:14;13.80;99.90
4856;DHT22;2442;48.676;7.986;2022-09-09T05:23:42;13.90;99.90
4856;DHT22;2442;48.676;7.986;2022-09-09T05:26:12;13.90;99.90
4856;DHT22;2442;48.676;7.986;2022-09-09T05:28:41;13.80;99.90
4856;DHT22;2442;48.676;7.986;2022-09-09T05:31:09;13.80;99.90
4856;DHT22;2442;48.676;7.986;2022-09-09T05:33:40;13.80;99.90
4856;DHT22;2442;48.676;7.986;2022-09-09T05:36:10;13.80;99.90
4856;DHT22;2442;48.676;7.986;2022-09-09T05:38:40;13.80;99.90
4856;DHT22;2442;48.676;7.986;2022-09-09T05:41:07;13.90;99.90
4856;DHT22;2442;48.676;7.986;2022-09-09T05:43:35;14.00;99.90
4856;DHT22;2442;48.676;7.986;2022-09-09T05:46:04;14.10;99.90
4856;DHT22;2442;48.676;7.986;2022-09-09T05:48:33;14.10;99.90
4856;DHT22;2442;48.676;7.986;2022-09-09T05:51:03;14.20;99.90
4856;DHT22;2442;48.676;7.986;2022-09-09T05:53:32;14.20;99.90
4856;DHT22;2442;48.676;7.986;2022-09-09T05:56:01;14.20;99.90
4856;DHT22;2442;48.676;7.986;2022-09-09T05:58:30;14.30;99.90
4856;DHT22;2442;48.676;7.986;2022-09-09T06:01:01;14.40;99.90
4856;DHT22;2442;48.676;7.986;2022-09-09T06:03:30;14.40;99.90
4856;DHT22;2442;48.676;7.986;2022-09-09T06:05:58;14.50;99.90
4856;DHT22;2442;48.676;7.986;2022-09-09T06:08:26;14.50;99.90
4856;DHT22;2442;48.676;7.986;2022-09-09T06:10:53;14.60;99.90
4856;DHT22;2442;48.676;7.986;2022-09-09T06:13:28;14.60;99.90
4856;DHT22;2442;48.676;7.986;2022-09-09T06:15:55;14.70;99.90
4856;DHT22;2442;48.676;7.986;2022-09-09T06:18:23;14.80;99.90
4856;DHT22;2442;48.676;7.986;2022-09-09T06:20:56;14.90;99.90
4856;DHT22;2442;48.676;7.986;2022-09-09T06:23:23;15.00;99.90
4856;DHT22;2442;48.676;7.986;2022-09-09T06:25:59;15.10;99.90
4856;DHT22;2442;48.676;7.986;2022-09-09T06:28:27;15.10;99.90
4856;DHT22;2442;48.676;7.986;2022-09-09T06:30:57;15.20;99.90
4856;DHT22;2442;48.676;7.986;2022-09-09T06:33:25;15.20;99.90
4856;DHT22;2442;48.676;7.986;2022-09-09T06:35:53;15.20;99.90
4856;DHT22;2442;48.676;7.986;2022-09-09T06:38:22;15.20;99.90
4856;DHT22;2442;48.676;7.986;2022-09-09T06:40:55;15.30;99.90
4856;DHT22;2442;48.676;7.986;2022-09-09T06:43:23;15.40;99.90
4856;DHT22;2442;48.676;7.986;2022-09-09T06:45:55;15.40;99.90
4856;DHT22;2442;48.676;7.986;2022-09-09T06:48:23;15.50;99.90
4856;DHT22;2442;48.676;7.986;2022-09-09T06:50:51;15.80;99.90
4856;DHT22;2442;48.676;7.986;2022-09-09T06:53:19;16.00;99.90
4856;DHT22;2442;48.676;7.986;2022-09-09T06:55:46;16.00;99.90
4856;DHT22;2442;48.676;7.986;2022-09-09T06:58:14;16.00;99.90
4856;DHT22;2442;48.676;7.986;2022-09-09T07:00:41;16.00;99.90
4856;DHT22;2442;48.676;7.986;2022-09-09T07:03:10;16.10;99.90
4856;DHT22;2442;48.676;7.986;2022-09-09T07:05:37;16.00;99.90
4856;DHT22;2442;48.676;7.986;2022-09-09T07:08:04;16.00;99.90
4856;DHT22;2442;48.676;7.986;2022-09-09T07:10:32;16.00;99.90
4856;DHT22;2442;48.676;7.986;2022-09-09T07:12:59;16.10;99.90
4856;DHT22;2442;48.676;7.986;2022-09-09T07:15:28;16.20;99.90
4856;DHT22;2442;48.676;7.986;2022-09-09T07:17:55;16.20;99.90
4856;DHT22;2442;48.676;7.986;2022-09-09T07:20:27;16.30;99.90
4856;DHT22;2442;48.676;7.986;2022-09-09T07:22:55;16.30;99.90
4856;DHT22;2442;48.676;7.986;2022-09-09T07:25:24;16.30;99.90
4856;DHT22;2442;48.676;7.986;2022-09-09T07:27:53;16.50;99.90
4856;DHT22;2442;48.676;7.986;2022-09-09T07:30:20;16.50;99.90
4856;DHT22;2442;48.676;7.986;2022-09-09T07:32:50;16.80;99.90
4856;DHT22;2442;48.676;7.986;2022-09-09T07:35:18;17.30;99.90
4856;DHT22;2442;48.676;7.986;2022-09-09T07:37:45;17.60;99.90
4856;DHT22;2442;48.676;7.986;2022-09-09T07:40:12;17.90;99.90
4856;DHT22;2442;48.676;7.986;2022-09-09T07:42:40;17.90;99.90
4856;DHT22;2442;48.676;7.986;2022-09-09T07:45:07;17.80;99.90
4856;DHT22;2442;48.676;7.986;2022-09-09T07:47:34;17.70;99.90
4856;DHT22;2442;48.676;7.986;2022-09-09T07:50:03;17.70;99.90
4856;DHT22;2442;48.676;7.986;2022-09-09T07:52:31;17.60;99.90
4856;DHT22;2442;48.676;7.986;2022-09-09T07:54:58;17.70;99.90
4856;DHT22;2442;48.676;7.986;2022-09-09T07:57:25;17.70;99.90
4856;DHT22;2442;48.676;7.986;2022-09-09T07:59:53;17.60;99.90
4856;DHT22;2442;48.676;7.986;2022-09-09T08:02:21;17.70;99.90
4856;DHT22;2442;48.676;7.986;2022-09-09T08:04:49;17.60;99.90
4856;DHT22;2442;48.676;7.986;2022-09-09T08:07:18;17.80;99.90
4856;DHT22;2442;48.676;7.986;2022-09-09T08:09:47;17.80;99.90
4856;DHT22;2442;48.676;7.986;2022-09-09T08:12:14;17.80;99.90
4856;DHT22;2442;48.676;7.986;2022-09-09T08:14:42;17.80;99.90
4856;DHT22;2442;48.676;7.986;2022-09-09T08:17:09;17.90;99.90
4856;DHT22;2442;48.676;7.986;2022-09-09T08:19:36;17.90;99.90
4856;DHT22;2442;48.676;7.986;2022-09-09T08:22:03;18.00;99.90
4856;DHT22;2442;48.676;7.986;2022-09-09T08:24:31;18.10;99.90
4856;DHT22;2442;48.676;7.986;2022-09-09T08:26:58;18.00;99.90
4856;DHT22;2442;48.676;7.986;2022-09-09T08:29:25;18.00;99.90
4856;DHT22;2442;48.676;7.986;2022-09-09T08:31:55;18.00;99.90
4856;DHT22;2442;48.676;7.986;2022-09-09T08:34:24;18.00;99.90
4856;DHT22;2442;48.676;7.986;2022-09-09T08:36:52;18.10;99.90
4856;DHT22;2442;48.676;7.986;2022-09-09T08:39:21;18.20;99.90
4856;DHT22;2442;48.676;7.986;2022-09-09T08:42:18;18.20;99.90
4856;DHT22;2442;48.676;7.986;2022-09-09T08:45:09;18.40;99.90
4856;DHT22;2442;48.676;7.986;2022-09-09T08:47:51;18.40;99.90
4856;DHT22;2442;48.676;7.986;2022-09-09T08:50:25;18.50;99.90
4856;DHT22;2442;48.676;7.986;2022-09-09T08:52:59;18.60;99.90
4856;DHT22;2442;48.676;7.986;2022-09-09T08:55:37;18.60;99.90
4856;DHT22;2442;48.676;7.986;2022-09-09T08:58:13;18.60;99.90
4856;DHT22;2442;48.676;7.986;2022-09-09T09:00:50;18.70;99.90
4856;DHT22;2442;48.676;7.986;2022-09-09T09:03:30;18.90;99.90
4856;DHT22;2442;48.676;7.986;2022-09-09T09:06:09;18.80;99.90
4856;DHT22;2442;48.676;7.986;2022-09-09T09:08:50;18.90;99.90
4856;DHT22;2442;48.676;7.986;2022-09-09T09:11:20;18.80;99.90
4856;DHT22;2442;48.676;7.986;2022-09-09T09:13:54;18.80;99.90
4856;DHT22;2442;48.676;7.986;2022-09-09T09:18:53;18.70;99.90
4856;DHT22;2442;48.676;7.986;2022-09-09T09:21:27;18.80;99.90
4856;DHT22;2442;48.676;7.986;2022-09-09T09:24:00;18.80;99.90
4856;DHT22;2442;48.676;7.986;2022-09-09T09:26:31;18.70;99.90
4856;DHT22;2442;48.676;7.986;2022-09-09T09:29:10;18.80;99.90
4856;DHT22;2442;48.676;7.986;2022-09-09T09:31:43;18.40;99.90
4856;DHT22;2442;48.676;7.986;2022-09-09T09:34:13;18.30;99.90
4856;DHT22;2442;48.676;7.986;2022-09-09T09:36:42;18.30;99.90
4856;DHT22;2442;48.676;7.986;2022-09-09T09:39:22;18.30;99.90
4856;DHT22;2442;48.676;7.986;2022-09-09T09:41:51;18.00;99.90
4856;DHT22;2442;48.676;7.986;2022-09-09T09:44:25;17.50;99.90
4856;DHT22;2442;48.676;7.986;2022-09-09T09:47:05;17.40;99.90
4856;DHT22;2442;48.676;7.986;2022-09-09T09:49:34;17.50;99.90
4856;DHT22;2442;48.676;7.986;2022-09-09T09:52:01;17.80;99.90
4856;DHT22;2442;48.676;7.986;2022-09-09T09:54:30;18.10;99.90
4856;DHT22;2442;48.676;7.986;2022-09-09T09:57:11;18.40;99.90
4856;DHT22;2442;48.676;7.986;2022-09-09T09:59:42;18.50;99.90
4856;DHT22;2442;48.676;7.986;2022-09-09T10:02:20;18.50;99.90
4856;DHT22;2442;48.676;7.986;2022-09-09T10:05:00;18.50;99.90
4856;DHT22;2442;48.676;7.986;2022-09-09T10:07:30;18.60;99.90
4856;DHT22;2442;48.676;7.986;2022-09-09T10:09:58;18.60;99.90
4856;DHT22;2442;48.676;7.986;2022-09-09T10:12:34;18.60;99.90
4856;DHT22;2442;48.676;7.986;2022-09-09T10:15:29;18.60;99.90
4856;DHT22;2442;48.676;7.986;2022-09-09T10:18:07;18.70;99.90
4856;DHT22;2442;48.676;7.986;2022-09-09T10:20:48;18.70;99.90
4856;DHT22;2442;48.676;7.986;2022-09-09T10:23:29;18.90;99.90
4856;DHT22;2442;48.676;7.986;2022-09-09T10:26:16;19.10;99.90
4856;DHT22;2442;48.676;7.986;2022-09-09T10:29:26;19.50;99.90
4856;DHT22;2442;48.676;7.986;2022-09-09T10:32:10;19.80;99.90
4856;DHT22;2442;48.676;7.986;2022-09-09T10:34:56;20.00;99.90
4856;DHT22;2442;48.676;7.986;2022-09-09T10:37:37;19.90;99.90
4856;DHT22;2442;48.676;7.986;2022-09-09T10:40:26;20.00;99.90
4856;DHT22;2442;48.676;7.986;2022-09-09T10:43:03;19.80;99.90
4856;DHT22;2442;48.676;7.986;2022-09-09T10:45:45;19.80;99.90
4856;DHT22;2442;48.676;7.986;2022-09-09T10:48:34;19.60;99.90
4856;DHT22;2442;48.676;7.986;2022-09-09T10:51:19;19.30;99.90
4856;DHT22;2442;48.676;7.986;2022-09-09T10:53:58;19.00;99.90
4856;DHT22;2442;48.676;7.986;2022-09-09T10:56:34;19.20;99.90
4856;DHT22;2442;48.676;7.986;2022-09-09T10:59:06;19.70;99.90
4856;DHT22;2442;48.676;7.986;2022-09-09T11:01:39;19.70;99.90
4856;DHT22;2442;48.676;7.986;2022-09-09T11:04:15;19.70;99.90
4856;DHT22;2442;48.676;7.986;2022-09-09T11:06:48;19.90;99.90
4856;DHT22;2442;48.676;7.986;2022-09-09T11:09:21;19.90;99.90
4856;DHT22;2442;48.676;7.986;2022-09-09T11:11:53;20.20;99.90
4856;DHT22;2442;48.676;7.986;2022-09-09T11:14:26;20.40;99.90
4856;DHT22;2442;48.676;7.986;2022-09-09T11:16:58;20.80;99.90
4856;DHT22;2442;48.676;7.986;2022-09-09T11:19:32;21.20;99.90
4856;DHT22;2442;48.676;7.986;2022-09-09T11:22:03;20.90;99.90
4856;DHT22;2442;48.676;7.986;2022-09-09T11:24:37;20.80;99.90
4856;DHT22;2442;48.676;7.986;2022-09-09T11:27:09;21.00;99.90
4856;DHT22;2442;48.676;7.986;2022-09-09T11:33:27;21.00;99.90
4856;DHT22;2442;48.676;7.986;2022-09-09T11:36:56;21.00;99.90
4856;DHT22;2442;48.676;7.986;2022-09-09T11:39:53;20.90;99.90
4856;DHT22;2442;48.676;7.986;2022-09-09T11:42:25;21.00;99.90
4856;DHT22;2442;48.676;7.986;2022-09-09T11:44:52;21.20;99.90
4856;DHT22;2442;48.676;7.986;2022-09-09T11:47:23;21.60;99.90
4856;DHT22;2442;48.676;7.986;2022-09-09T11:49:55;21.80;99.90
4856;DHT22;2442;48.676;7.986;2022-09-09T11:52:35;21.90;99.90
4856;DHT22;2442;48.676;7.986;2022-09-09T11:55:09;21.80;99.90
4856;DHT22;2442;48.676;7.986;2022-09-09T11:57:38;21.70;99.90
4856;DHT22;2442;48.676;7.986;2022-09-09T12:00:06;21.40;99.90
4856;DHT22;2442;48.676;7.986;2022-09-09T12:02:49;21.10;99.90
4856;DHT22;2442;48.676;7.986;2022-09-09T12:05:16;20.80;99.90
4856;DHT22;2442;48.676;7.986;2022-09-09T12:07:51;20.60;99.90
4856;DHT22;2442;48.676;7.986;2022-09-09T12:10:25;20.50;99.90
4856;DHT22;2442;48.676;7.986;2022-09-09T12:12:54;20.50;99.90
4856;DHT22;2442;48.676;7.986;2022-09-09T12:15:26;20.40;99.90
4856;DHT22;2442;48.676;7.986;2022-09-09T12:17:56;20.40;99.90
4856;DHT22;2442;48.676;7.986;2022-09-09T12:20:31;20.60;99.90
4856;DHT22;2442;48.676;7.986;2022-09-09T12:23:17;20.70;99.90
4856;DHT22;2442;48.676;7.986;2022-09-09T12:26:17;20.80;99.90
4856;DHT22;2442;48.676;7.986;2022-09-09T12:28:56;21.40;99.90
4856;DHT22;2442;48.676;7.986;2022-09-09T12:31:34;22.00;99.90
4856;DHT22;2442;48.676;7.986;2022-09-09T12:34:10;22.30;99.90
4856;DHT22;2442;48.676;7.986;2022-09-09T12:36:39;22.50;99.90
4856;DHT22;2442;48.676;7.986;2022-09-09T12:39:22;22.60;99.90
4856;DHT22;2442;48.676;7.986;2022-09-09T12:41:54;22.80;99.90
4856;DHT22;2442;48.676;7.986;2022-09-09T12:44:23;22.60;99.90
4856;DHT22;2442;48.676;7.986;2022-09-09T12:46:51;22.20;99.90
4856;DHT22;2442;48.676;7.986;2022-09-09T12:49:31;21.90;99.90
4856;DHT22;2442;48.676;7.986;2022-09-09T12:52:02;21.70;99.90
4856;DHT22;2442;48.676;7.986;2022-09-09T12:54:35;21.70;99.90
4856;DHT22;2442;48.676;7.986;2022-09-09T12:57:03;21.60;99.90
4856;DHT22;2442;48.676;7.986;2022-09-09T12:59:36;21.60;99.90
4856;DHT22;2442;48.676;7.986;2022-09-09T13:02:16;21.60;99.90
4856;DHT22;2442;48.676;7.986;2022-09-09T13:04:45;21.70;99.90
4856;DHT22;2442;48.676;7.986;2022-09-09T13:07:13;21.70;99.90
4856;DHT22;2442;48.676;7.986;2022-09-09T13:09:43;21.60;99.90
4856;DHT22;2442;48.676;7.986;2022-09-09T13:12:15;21.40;99.90
4856;DHT22;2442;48.676;7.986;2022-09-09T13:14:46;21.30;99.90
4856;DHT22;2442;48.676;7.986;2022-09-09T13:17:20;21.30;99.90
4856;DHT22;2442;48.676;7.986;2022-09-09T13:19:49;21.30;99.90
4856;DHT22;2442;48.676;7.986;2022-09-09T13:22:26;21.40;99.90
4856;DHT22;2442;48.676;7.986;2022-09-09T13:25:03;21.30;99.90
4856;DHT22;2442;48.676;7.986;2022-09-09T13:27:34;21.40;99.90
4856;DHT22;2442;48.676;7.986;2022-09-09T13:30:22;21.40;99.90
4856;DHT22;2442;48.676;7.986;2022-09-09T13:33:02;21.50;99.90
4856;DHT22;2442;48.676;7.986;2022-09-09T13:35:47;21.30;99.90
4856;DHT22;2442;48.676;7.986;2022-09-09T13:38:16;21.20;99.90
4856;DHT22;2442;48.676;7.986;2022-09-09T13:40:54;21.60;99.90
4856;DHT22;2442;48.676;7.986;2022-09-09T13:43:24;21.80;99.90
4856;DHT22;2442;48.676;7.986;2022-09-09T13:45:55;22.10;99.90
4856;DHT22;2442;48.676;7.986;2022-09-09T13:48:24;22.40;99.90
4856;DHT22;2442;48.676;7.986;2022-09-09T13:51:00;22.50;99.90
4856;DHT22;2442;48.676;7.986;2022-09-09T13:53:28;22.60;99.90
4856;DHT22;2442;48.676;7.986;2022-09-09T13:55:57;22.70;99.90
4856;DHT22;2442;48.676;7.986;2022-09-09T13:58:25;22.80;99.90
4856;DHT22;2442;48.676;7.986;2022-09-09T14:00:52;22.90;99.90
4856;DHT22;2442;48.676;7.986;2022-09-09T14:03:20;22.90;99.90
4856;DHT22;2442;48.676;7.986;2022-09-09T14:05:47;22.70;99.90
4856;DHT22;2442;48.676;7.986;2022-09-09T14:08:25;22.40;99.90
4856;DHT22;2442;48.676;7.986;2022-09-09T14:10:54;22.20;99.90
4856;DHT22;2442;48.676;7.986;2022-09-09T14:13:26;21.90;99.90
4856;DHT22;2442;48.676;7.986;2022-09-09T14:15:53;21.70;99.90
4856;DHT22;2442;48.676;7.986;2022-09-09T14:18:20;21.50;99.90
4856;DHT22;2442;48.676;7.986;2022-09-09T14:20:48;21.40;99.90
4856;DHT22;2442;48.676;7.986;2022-09-09T14:23:16;21.30;99.90
4856;DHT22;2442;48.676;7.986;2022-09-09T14:25:44;21.20;99.90
4856;DHT22;2442;48.676;7.986;2022-09-09T14:28:13;21.20;99.90
4856;DHT22;2442;48.676;7.986;2022-09-09T14:30:43;21.10;99.90
4856;DHT22;2442;48.676;7.986;2022-09-09T14:33:14;21.00;99.90
4856;DHT22;2442;48.676;7.986;2022-09-09T14:35:42;20.90;99.90
4856;DHT22;2442;48.676;7.986;2022-09-09T14:38:09;20.90;99.90
4856;DHT22;2442;48.676;7.986;2022-09-09T14:40:37;20.40;99.90
4856;DHT22;2442;48.676;7.986;2022-09-09T14:43:05;19.20;99.90
4856;DHT22;2442;48.676;7.986;2022-09-09T14:45:32;18.00;99.90
4856;DHT22;2442;48.676;7.986;2022-09-09T14:48:01;16.90;99.90
4856;DHT22;2442;48.676;7.986;2022-09-09T14:50:28;16.10;99.90
4856;DHT22;2442;48.676;7.986;2022-09-09T14:52:55;15.80;99.90
4856;DHT22;2442;48.676;7.986;2022-09-09T14:55:22;15.60;99.90
4856;DHT22;2442;48.676;7.986;2022-09-09T14:57:49;15.60;99.90
4856;DHT22;2442;48.676;7.986;2022-09-09T15:00:16;15.60;99.90
4856;DHT22;2442;48.676;7.986;2022-09-09T15:02:43;15.60;99.90
4856;DHT22;2442;48.676;7.986;2022-09-09T15:05:11;15.60;99.90
4856;DHT22;2442;48.676;7.986;2022-09-09T15:07:38;15.60;99.90
4856;DHT22;2442;48.676;7.986;2022-09-09T15:10:06;15.50;99.90
4856;DHT22;2442;48.676;7.986;2022-09-09T15:12:33;15.50;99.90
4856;DHT22;2442;48.676;7.986;2022-09-09T15:15:01;15.70;99.90
4856;DHT22;2442;48.676;7.986;2022-09-09T15:17:29;15.90;99.90
4856;DHT22;2442;48.676;7.986;2022-09-09T15:19:56;16.00;99.90
4856;DHT22;2442;48.676;7.986;2022-09-09T15:22:24;16.10;99.90
4856;DHT22;2442;48.676;7.986;2022-09-09T15:24:51;16.20;99.90
4856;DHT22;2442;48.676;7.986;2022-09-09T15:27:18;16.30;99.90
4856;DHT22;2442;48.676;7.986;2022-09-09T15:29:45;16.40;99.90
4856;DHT22;2442;48.676;7.986;2022-09-09T15:32:13;16.50;99.90
4856;DHT22;2442;48.676;7.986;2022-09-09T15:34:40;16.60;99.90
4856;DHT22;2442;48.676;7.986;2022-09-09T15:37:10;16.60;99.90
4856;DHT22;2442;48.676;7.986;2022-09-09T15:39:40;16.70;99.90
4856;DHT22;2442;48.676;7.986;2022-09-09T15:42:07;16.70;99.90
4856;DHT22;2442;48.676;7.986;2022-09-09T15:44:39;16.70;99.90
4856;DHT22;2442;48.676;7.986;2022-09-09T15:47:09;16.60;99.90
4856;DHT22;2442;48.676;7.986;2022-09-09T15:49:37;16.50;99.90
4856;DHT22;2442;48.676;7.986;2022-09-09T15:52:05;16.40;99.90
4856;DHT22;2442;48.676;7.986;2022-09-09T15:54:33;16.40;99.90
4856;DHT22;2442;48.676;7.986;2022-09-09T15:57:03;16.40;99.90
4856;DHT22;2442;48.676;7.986;2022-09-09T15:59:32;16.40;99.90
4856;DHT22;2442;48.676;7.986;2022-09-09T16:02:00;16.40;99.90
4856;DHT22;2442;48.676;7.986;2022-09-09T16:04:28;16.40;99.90
4856;DHT22;2442;48.676;7.986;2022-09-09T16:06:56;16.40;99.90
4856;DHT22;2442;48.676;7.986;2022-09-09T16:09:27;16.50;99.90
4856;DHT22;2442;48.676;7.986;2022-09-09T16:11:56;16.40;99.90
4856;DHT22;2442;48.676;7.986;2022-09-09T16:14:26;16.40;99.90
4856;DHT22;2442;48.676;7.986;2022-09-09T16:16:53;16.20;99.90
4856;DHT22;2442;48.676;7.986;2022-09-09T16:19:20;16.20;99.90
4856;DHT22;2442;48.676;7.986;2022-09-09T16:21:49;16.10;99.90
4856;DHT22;2442;48.676;7.986;2022-09-09T16:24:18;16.10;99.90
4856;DHT22;2442;48.676;7.986;2022-09-09T16:26:47;16.10;99.90
4856;DHT22;2442;48.676;7.986;2022-09-09T16:29:17;16.00;99.90
4856;DHT22;2442;48.676;7.986;2022-09-09T16:31:46;16.00;99.90
4856;DHT22;2442;48.676;7.986;2022-09-09T16:34:15;16.10;99.90
4856;DHT22;2442;48.676;7.986;2022-09-09T16:36:44;16.20;99.90
4856;DHT22;2442;48.676;7.986;2022-09-09T16:39:13;16.30;99.90
4856;DHT22;2442;48.676;7.986;2022-09-09T16:41:42;16.40;99.90